Time;durP1;ratioP1;P1;durP2;ratioP2;P2;SDS_P1;SDS_P2;PMS_P1;PMS_P2;Temp;Humidity;BMP_temperature;BMP_pressure;BME280_temperature;BME280_humidity;BME280_pressure;Samples;Min_cycle;Max_cycle;Signal;HPM_P1;HPM_P2
2024/01/04 00:01:15;;;;;;;1.32;0.78;;;11.70;99.90;;;;;;970156;147;27326;-86
2024/01/04 00:03:42;;;;;;;1.97;0.83;;;11.80;99.90;;;;;;969809;147;27326;-85
2024/01/04 00:06:08;;;;;;;0.87;0.63;;;11.80;99.90;;;;;;970261;146;27367;-86
2024/01/04 00:08:35;;;;;;;0.98;0.65;;;11.90;99.90;;;;;;969521;146;27480;-82
2024/01/04 00:11:06;;;;;;;0.93;0.57;;;11.90;99.90;;;;;;969613;146;27298;-79
2024/01/04 00:13:31;;;;;;;1.50;0.60;;;11.90;99.90;;;;;;969738;147;27356;-79
2024/01/04 00:15:57;;;;;;;1.50;0.80;;;11.90;99.90;;;;;;969667;146;27457;-82
2024/01/04 00:18:24;;;;;;;1.43;0.60;;;11.90;99.90;;;;;;970130;148;27398;-82
2024/01/04 00:20:50;;;;;;;1.20;0.72;;;12.00;99.90;;;;;;970439;148;28367;-80
2024/01/04 00:23:17;;;;;;;0.60;0.60;;;12.00;99.90;;;;;;969675;147;27282;-80
2024/01/04 00:25:44;;;;;;;1.30;0.62;;;12.00;99.90;;;;;;969793;145;27399;-80
2024/01/04 00:28:10;;;;;;;0.77;0.60;;;12.00;99.90;;;;;;969715;147;27416;-83
2024/01/04 00:30:37;;;;;;;0.97;0.53;;;12.00;99.90;;;;;;969119;148;27411;-79
2024/01/04 00:33:03;;;;;;;0.77;0.50;;;12.00;99.90;;;;;;969570;147;27218;-79
2024/01/04 00:35:30;;;;;;;0.93;0.50;;;12.00;99.90;;;;;;968972;145;27302;-79
2024/01/04 00:37:57;;;;;;;0.93;0.83;;;12.00;99.90;;;;;;969841;146;27283;-80
2024/01/04 00:40:23;;;;;;;1.40;0.67;;;12.10;99.90;;;;;;970420;147;27322;-78
2024/01/04 00:42:50;;;;;;;0.60;0.40;;;12.10;99.90;;;;;;969114;146;28445;-81
2024/01/04 00:45:16;;;;;;;0.80;0.50;;;12.10;99.90;;;;;;969198;147;27243;-78
2024/01/04 00:47:43;;;;;;;0.40;0.40;;;12.10;99.90;;;;;;969062;147;27323;-79
2024/01/04 00:50:10;;;;;;;1.22;0.60;;;12.10;99.90;;;;;;969970;148;27419;-79
2024/01/04 00:52:36;;;;;;;0.37;0.37;;;12.10;99.90;;;;;;970026;147;27411;-79
2024/01/04 00:55:03;;;;;;;1.10;0.80;;;12.20;99.90;;;;;;934005;151;27346;-79
2024/01/04 00:57:29;;;;;;;0.40;0.40;;;12.20;99.90;;;;;;928032;150;27330;-80
2024/01/04 00:59:56;;;;;;;1.77;0.60;;;12.20;99.90;;;;;;942184;150;27438;-83
2024/01/04 01:02:22;;;;;;;2.10;0.72;;;12.20;99.90;;;;;;927335;154;27359;-79
2024/01/04 01:04:49;;;;;;;0.40;0.40;;;12.20;99.90;;;;;;927103;154;27277;-79
2024/01/04 01:07:16;;;;;;;0.90;0.60;;;12.20;99.90;;;;;;927188;154;27287;-80
2024/01/04 01:09:42;;;;;;;1.33;0.53;;;12.20;99.90;;;;;;926919;153;27436;-82
2024/01/04 01:12:09;;;;;;;0.57;0.43;;;12.20;99.90;;;;;;927286;153;27358;-88
2024/01/04 01:14:35;;;;;;;0.40;0.30;;;12.20;99.90;;;;;;941216;151;27392;-87
2024/01/04 01:17:02;;;;;;;0.50;0.50;;;12.20;99.90;;;;;;951102;148;27370;-87
2024/01/04 01:19:29;;;;;;;0.30;0.30;;;12.20;99.90;;;;;;927015;154;27299;-79
2024/01/04 01:21:55;;;;;;;0.50;0.50;;;12.20;99.90;;;;;;934629;153;27381;-79
2024/01/04 01:24:22;;;;;;;0.53;0.50;;;12.20;99.90;;;;;;932463;152;27358;-79
2024/01/04 01:26:48;;;;;;;0.60;0.45;;;12.20;99.90;;;;;;936161;150;27326;-79
2024/01/04 01:29:15;;;;;;;0.57;0.57;;;12.30;99.90;;;;;;931428;152;27336;-80
2024/01/04 01:31:42;;;;;;;0.70;0.57;;;12.20;99.90;;;;;;933058;149;27438;-78
2024/01/04 01:34:08;;;;;;;0.40;0.40;;;12.30;99.90;;;;;;938480;152;27442;-79
2024/01/04 01:36:35;;;;;;;0.40;0.40;;;12.30;99.90;;;;;;937251;152;27337;-79
2024/01/04 01:39:02;;;;;;;0.60;0.50;;;12.30;99.90;;;;;;945566;148;27397;-78
2024/01/04 01:41:28;;;;;;;0.40;0.40;;;12.30;99.90;;;;;;944264;149;27380;-84
2024/01/04 01:43:54;;;;;;;0.23;0.23;;;12.30;99.90;;;;;;969453;147;27330;-82
2024/01/04 01:46:21;;;;;;;0.35;0.25;;;12.30;99.90;;;;;;968915;148;27313;-79
2024/01/04 01:48:48;;;;;;;0.40;0.40;;;12.30;99.90;;;;;;968213;147;27359;-79
2024/01/04 01:51:14;;;;;;;0.40;0.40;;;12.30;99.90;;;;;;969423;147;27745;-79
2024/01/04 01:53:41;;;;;;;0.77;0.77;;;12.30;99.90;;;;;;970232;147;27369;-83
2024/01/04 01:56:07;;;;;;;0.30;0.30;;;12.30;99.90;;;;;;970265;147;27411;-78
2024/01/04 01:58:34;;;;;;;0.57;0.53;;;12.30;99.90;;;;;;969542;147;27231;-79
2024/01/04 02:01:01;;;;;;;1.33;0.60;;;12.30;99.90;;;;;;968380;147;27279;-79
2024/01/04 02:03:27;;;;;;;0.47;0.47;;;12.20;99.90;;;;;;968654;147;27422;-80
2024/01/04 02:05:54;;;;;;;0.30;0.30;;;12.30;99.90;;;;;;969492;147;27334;-83
2024/01/04 02:08:20;;;;;;;0.90;0.55;;;12.20;99.90;;;;;;969329;146;27315;-79
2024/01/04 02:10:47;;;;;;;0.28;0.28;;;12.20;99.90;;;;;;969034;148;27291;-79
2024/01/04 02:13:14;;;;;;;0.40;0.40;;;12.10;99.90;;;;;;969604;147;27370;-79
2024/01/04 02:15:40;;;;;;;0.53;0.50;;;12.10;99.90;;;;;;969297;147;27406;-83
2024/01/04 02:18:07;;;;;;;0.70;0.50;;;12.10;99.90;;;;;;968869;147;27341;-79
2024/01/04 02:20:33;;;;;;;0.60;0.60;;;12.10;99.90;;;;;;969675;147;27364;-87
2024/01/04 02:23:00;;;;;;;1.13;0.43;;;12.10;99.90;;;;;;970021;147;27340;-81
2024/01/04 02:25:26;;;;;;;1.00;0.50;;;12.10;99.90;;;;;;968409;147;27299;-84
2024/01/04 02:27:53;;;;;;;0.40;0.40;;;12.10;99.90;;;;;;974589;146;27347;-88
2024/01/04 02:30:20;;;;;;;0.53;0.40;;;12.10;99.90;;;;;;975080;147;27325;-87
2024/01/04 02:32:47;;;;;;;0.70;0.53;;;12.10;99.90;;;;;;974654;146;27274;-87
2024/01/04 02:35:13;;;;;;;0.60;0.60;;;12.10;99.90;;;;;;974375;146;27246;-85
2024/01/04 02:37:39;;;;;;;3.03;0.60;;;12.10;99.90;;;;;;974448;145;27340;-88
2024/01/04 02:40:06;;;;;;;1.10;0.47;;;12.10;99.90;;;;;;974391;146;27242;-88
2024/01/04 02:42:33;;;;;;;0.60;0.50;;;12.00;99.90;;;;;;974835;146;27304;-85
2024/01/04 02:44:59;;;;;;;3.60;0.80;;;12.00;99.90;;;;;;974388;146;27347;-85
2024/01/04 02:47:26;;;;;;;1.30;0.87;;;12.00;99.90;;;;;;975171;145;27322;-83
2024/01/04 02:49:52;;;;;;;0.33;0.33;;;11.90;99.90;;;;;;974202;145;27391;-87
2024/01/04 02:52:19;;;;;;;1.20;0.53;;;11.90;99.90;;;;;;974386;145;27365;-87
2024/01/04 02:54:46;;;;;;;0.50;0.50;;;11.80;99.90;;;;;;974629;145;27250;-87
2024/01/04 02:57:12;;;;;;;0.80;0.30;;;11.80;99.90;;;;;;974542;146;27302;-85
2024/01/04 02:59:39;;;;;;;0.67;0.67;;;11.70;99.90;;;;;;975050;146;27372;-86
2024/01/04 03:02:05;;;;;;;2.57;0.60;;;11.70;99.90;;;;;;974103;146;27335;-87
2024/01/04 03:04:32;;;;;;;0.67;0.40;;;11.60;99.90;;;;;;974104;146;27398;-86
2024/01/04 03:06:59;;;;;;;0.50;0.37;;;11.50;99.90;;;;;;975053;145;27213;-86
2024/01/04 03:09:25;;;;;;;0.50;0.50;;;11.50;99.90;;;;;;974945;146;27439;-86
2024/01/04 03:11:52;;;;;;;1.30;0.60;;;11.50;99.90;;;;;;974421;146;27410;-86
2024/01/04 03:14:18;;;;;;;0.50;0.50;;;11.40;99.90;;;;;;974328;145;27234;-86
2024/01/04 03:16:45;;;;;;;0.50;0.50;;;11.40;99.90;;;;;;974066;146;27253;-87
2024/01/04 03:19:12;;;;;;;1.33;0.53;;;11.40;99.90;;;;;;973990;146;27379;-84
2024/01/04 03:21:38;;;;;;;0.33;0.33;;;11.40;99.90;;;;;;974244;145;27421;-88
2024/01/04 03:24:05;;;;;;;1.30;0.60;;;11.40;99.90;;;;;;973981;146;27297;-87
2024/01/04 03:26:32;;;;;;;0.50;0.50;;;11.40;99.90;;;;;;974803;145;27289;-87
2024/01/04 03:28:58;;;;;;;0.97;0.60;;;11.40;99.90;;;;;;974983;146;27338;-82
2024/01/04 03:31:24;;;;;;;1.80;0.50;;;11.40;99.90;;;;;;974726;147;27416;-80
2024/01/04 03:33:51;;;;;;;0.27;0.27;;;11.40;99.90;;;;;;973782;147;27237;-79
2024/01/04 03:36:18;;;;;;;0.30;0.30;;;11.50;99.90;;;;;;975261;146;27281;-79
2024/01/04 03:38:45;;;;;;;0.43;0.43;;;11.50;99.90;;;;;;974903;146;27378;-88
2024/01/04 03:41:11;;;;;;;0.73;0.60;;;11.50;99.90;;;;;;974997;146;27400;-82
2024/01/04 03:43:37;;;;;;;1.30;0.50;;;11.50;99.90;;;;;;974030;146;27450;-89
2024/01/04 03:46:07;;;;;;;0.67;0.67;;;11.50;99.90;;;;;;974552;146;27918;-88
2024/01/04 03:48:34;;;;;;;0.50;0.50;;;11.50;99.90;;;;;;973531;146;27371;-89
2024/01/04 03:51:01;;;;;;;0.40;0.40;;;11.50;99.90;;;;;;974412;145;27317;-82
2024/01/04 03:53:27;;;;;;;0.57;0.43;;;11.60;99.90;;;;;;974711;146;27432;-89
2024/01/04 03:55:53;;;;;;;0.40;0.40;;;11.60;99.90;;;;;;975023;147;27222;-84
2024/01/04 03:58:20;;;;;;;0.30;0.30;;;11.60;99.90;;;;;;974967;147;27234;-89
2024/01/04 04:00:47;;;;;;;0.47;0.30;;;11.60;99.90;;;;;;975138;146;27301;-84
2024/01/04 04:03:13;;;;;;;2.10;0.90;;;11.60;99.90;;;;;;974753;146;27328;-87
2024/01/04 04:05:44;;;;;;;0.33;0.30;;;11.70;99.90;;;;;;973903;146;27274;-89
2024/01/04 04:08:06;;;;;;;0.63;0.40;;;11.70;99.90;;;;;;974782;146;27255;-87
2024/01/04 04:10:33;;;;;;;0.27;0.27;;;11.70;99.90;;;;;;974809;146;27258;-85
2024/01/04 04:12:59;;;;;;;0.40;0.40;;;11.70;99.90;;;;;;975176;146;27317;-86
2024/01/04 04:15:26;;;;;;;0.20;0.20;;;11.70;99.90;;;;;;974827;147;27349;-89
2024/01/04 04:17:55;;;;;;;0.20;0.20;;;11.70;99.90;;;;;;972424;146;27366;-87
2024/01/04 04:20:19;;;;;;;0.33;0.33;;;11.80;99.90;;;;;;974824;146;27315;-88
2024/01/04 04:22:46;;;;;;;0.77;0.40;;;11.80;99.90;;;;;;974349;145;27751;-84
2024/01/04 04:25:12;;;;;;;0.37;0.33;;;11.80;99.90;;;;;;974396;146;27332;-88
2024/01/04 04:27:39;;;;;;;0.30;0.30;;;11.80;99.90;;;;;;975052;147;27245;-89
2024/01/04 04:30:06;;;;;;;0.87;0.60;;;11.80;99.90;;;;;;972125;146;27303;-89
2024/01/04 04:32:32;;;;;;;0.30;0.30;;;11.80;99.90;;;;;;968829;147;27346;-87
2024/01/04 04:34:59;;;;;;;0.40;0.40;;;11.90;99.90;;;;;;969815;148;27295;-84
2024/01/04 04:37:25;;;;;;;0.53;0.40;;;11.90;99.90;;;;;;970357;147;27313;-89
2024/01/04 04:39:52;;;;;;;0.43;0.40;;;11.90;99.90;;;;;;969111;146;27782;-79
2024/01/04 04:42:19;;;;;;;0.30;0.30;;;11.90;99.90;;;;;;969469;147;27262;-79
2024/01/04 04:44:45;;;;;;;0.40;0.33;;;11.90;99.90;;;;;;968677;147;27855;-80
2024/01/04 04:47:12;;;;;;;0.33;0.30;;;11.90;99.90;;;;;;969519;148;27452;-79
2024/01/04 04:49:38;;;;;;;1.30;0.40;;;11.90;99.90;;;;;;968565;147;27290;-88
2024/01/04 04:52:05;;;;;;;0.45;0.33;;;12.00;99.90;;;;;;969630;147;27303;-88
2024/01/04 04:54:32;;;;;;;0.37;0.37;;;12.00;99.90;;;;;;970276;147;27360;-84
2024/01/04 04:56:58;;;;;;;2.43;0.50;;;12.00;99.90;;;;;;969974;147;27340;-89
2024/01/04 04:59:25;;;;;;;1.13;0.40;;;12.00;99.90;;;;;;970418;147;27298;-88
2024/01/04 05:01:51;;;;;;;0.20;0.20;;;12.00;99.90;;;;;;969528;147;28167;-88
2024/01/04 05:04:18;;;;;;;0.27;0.27;;;12.00;99.90;;;;;;970307;146;27278;-85
2024/01/04 05:06:44;;;;;;;0.60;0.50;;;12.00;99.90;;;;;;969642;147;27282;-83
2024/01/04 05:09:11;;;;;;;0.20;0.20;;;12.00;99.90;;;;;;969892;147;27798;-88
2024/01/04 05:11:38;;;;;;;0.50;0.50;;;12.00;99.90;;;;;;969571;147;27282;-89
2024/01/04 05:14:04;;;;;;;0.57;0.57;;;12.00;99.90;;;;;;970142;148;27666;-88
2024/01/04 05:16:31;;;;;;;0.40;0.40;;;12.00;99.90;;;;;;970465;147;27336;-85
2024/01/04 05:18:58;;;;;;;0.57;0.40;;;12.00;99.90;;;;;;969859;147;27333;-88
2024/01/04 05:21:24;;;;;;;0.23;0.23;;;12.10;99.90;;;;;;969289;147;27411;-87
2024/01/04 05:23:51;;;;;;;0.97;0.40;;;12.10;99.90;;;;;;969639;147;27269;-86
2024/01/04 05:26:21;;;;;;;0.60;0.40;;;12.10;99.90;;;;;;970147;147;27384;-88
2024/01/04 05:28:47;;;;;;;0.47;0.40;;;12.10;99.90;;;;;;969513;147;27374;-89
2024/01/04 05:31:15;;;;;;;0.45;0.42;;;12.10;99.90;;;;;;969523;147;27395;-88
2024/01/04 05:33:40;;;;;;;0.40;0.40;;;12.10;99.90;;;;;;970143;147;27307;-88
2024/01/04 05:36:06;;;;;;;0.30;0.30;;;12.10;99.90;;;;;;969917;147;27207;-84
2024/01/04 05:38:33;;;;;;;0.40;0.40;;;12.10;99.90;;;;;;970395;146;27319;-88
2024/01/04 05:41:00;;;;;;;0.57;0.47;;;12.10;99.90;;;;;;971917;147;27305;-88
2024/01/04 05:43:29;;;;;;;0.40;0.40;;;12.10;99.90;;;;;;969514;148;27215;-88
2024/01/04 05:45:53;;;;;;;0.95;0.53;;;12.10;99.90;;;;;;971221;146;27324;-87
2024/01/04 05:48:19;;;;;;;0.30;0.30;;;12.10;99.90;;;;;;969779;146;27272;-82
2024/01/04 05:50:46;;;;;;;0.57;0.37;;;12.10;99.90;;;;;;968641;147;27418;-87
2024/01/04 05:53:13;;;;;;;1.03;0.40;;;12.10;99.90;;;;;;970088;147;27314;-85
2024/01/04 05:55:39;;;;;;;0.50;0.50;;;12.10;99.90;;;;;;968596;146;27307;-87
2024/01/04 05:58:06;;;;;;;0.40;0.40;;;12.10;99.90;;;;;;969547;147;27387;-84
2024/01/04 06:00:32;;;;;;;0.30;0.30;;;12.10;99.90;;;;;;968902;147;27354;-82
2024/01/04 06:02:59;;;;;;;0.20;0.20;;;12.10;99.90;;;;;;969946;146;27314;-80
2024/01/04 06:05:26;;;;;;;0.93;0.70;;;12.00;99.90;;;;;;969908;147;27291;-79
2024/01/04 06:07:52;;;;;;;0.43;0.43;;;12.00;99.90;;;;;;974613;146;27295;-79
2024/01/04 06:10:19;;;;;;;0.35;0.35;;;12.00;99.90;;;;;;975024;146;27329;-83
2024/01/04 06:12:45;;;;;;;0.30;0.30;;;12.00;99.90;;;;;;974136;146;27412;-79
2024/01/04 06:15:12;;;;;;;0.57;0.40;;;12.00;99.90;;;;;;969450;147;27302;-79
2024/01/04 06:17:38;;;;;;;0.80;0.60;;;12.00;99.90;;;;;;968387;147;27295;-80
2024/01/04 06:20:05;;;;;;;1.23;0.40;;;12.10;99.90;;;;;;968915;147;27250;-80
2024/01/04 06:22:32;;;;;;;0.40;0.40;;;12.00;99.90;;;;;;969596;147;27395;-83
2024/01/04 06:24:58;;;;;;;0.50;0.50;;;12.00;99.90;;;;;;969156;147;27428;-79
2024/01/04 06:27:25;;;;;;;0.60;0.40;;;12.00;99.90;;;;;;969105;146;27263;-79
2024/01/04 06:29:51;;;;;;;0.77;0.47;;;12.10;99.90;;;;;;968752;146;27294;-79
2024/01/04 06:32:18;;;;;;;0.37;0.37;;;12.10;99.90;;;;;;969902;146;27340;-82
2024/01/04 06:34:45;;;;;;;0.73;0.57;;;12.10;99.90;;;;;;969074;147;27346;-79
2024/01/04 06:37:13;;;;;;;1.70;0.50;;;12.10;99.90;;;;;;969479;148;28886;-79
2024/01/04 06:39:38;;;;;;;0.68;0.50;;;12.10;99.90;;;;;;968888;148;27263;-79
2024/01/04 06:42:04;;;;;;;0.30;0.30;;;12.10;99.90;;;;;;975105;147;27223;-80
2024/01/04 06:44:32;;;;;;;0.42;0.42;;;12.10;99.90;;;;;;974722;146;27329;-79
2024/01/04 06:46:57;;;;;;;0.40;0.40;;;12.10;99.90;;;;;;974748;145;27281;-80
2024/01/04 06:49:24;;;;;;;1.07;0.55;;;12.10;99.90;;;;;;973976;147;27333;-80
2024/01/04 06:51:51;;;;;;;0.53;0.30;;;12.10;99.90;;;;;;970277;146;27375;-81
2024/01/04 06:54:17;;;;;;;1.37;0.85;;;12.10;99.90;;;;;;969739;148;27338;-79
2024/01/04 06:56:46;;;;;;;0.82;0.65;;;12.10;99.90;;;;;;969654;147;27420;-80
2024/01/04 06:59:10;;;;;;;0.95;0.70;;;12.20;99.90;;;;;;969460;146;27282;-88
2024/01/04 07:01:37;;;;;;;0.57;0.57;;;12.10;99.90;;;;;;970044;147;27254;-87
2024/01/04 07:04:04;;;;;;;0.88;0.88;;;12.20;99.90;;;;;;969555;147;27313;-84
2024/01/04 07:06:30;;;;;;;1.80;0.70;;;12.20;99.90;;;;;;969459;147;27330;-88
2024/01/04 07:08:57;;;;;;;0.57;0.43;;;12.20;99.90;;;;;;970420;147;27438;-79
2024/01/04 07:11:23;;;;;;;0.50;0.50;;;12.20;99.90;;;;;;970072;147;27239;-78
2024/01/04 07:13:50;;;;;;;0.77;0.63;;;12.20;99.90;;;;;;969993;148;27255;-79
2024/01/04 07:16:17;;;;;;;0.60;0.57;;;12.20;99.90;;;;;;970440;148;27314;-83
2024/01/04 07:18:43;;;;;;;0.70;0.60;;;12.20;99.90;;;;;;968887;147;27351;-79
2024/01/04 07:21:10;;;;;;;1.00;0.60;;;12.20;99.70;;;;;;969480;148;27279;-79
2024/01/04 07:23:36;;;;;;;0.40;0.40;;;12.20;99.70;;;;;;969554;147;27380;-79
2024/01/04 07:26:03;;;;;;;1.93;0.60;;;12.20;99.50;;;;;;969917;147;27326;-83
2024/01/04 07:28:29;;;;;;;1.40;0.87;;;12.20;99.60;;;;;;968670;147;27732;-80
2024/01/04 07:30:56;;;;;;;0.30;0.30;;;12.30;99.50;;;;;;968972;147;27316;-79
2024/01/04 07:33:23;;;;;;;1.73;0.77;;;12.20;99.50;;;;;;959646;147;27327;-79
2024/01/04 07:35:49;;;;;;;1.37;0.70;;;12.20;99.50;;;;;;956269;148;27263;-79
2024/01/04 07:38:16;;;;;;;0.50;0.50;;;12.20;99.70;;;;;;957385;148;27353;-80
2024/01/04 07:40:42;;;;;;;1.37;0.77;;;12.20;99.60;;;;;;957809;148;27386;-79
2024/01/04 07:43:09;;;;;;;0.50;0.50;;;12.20;99.70;;;;;;959089;146;27332;-79
2024/01/04 07:45:36;;;;;;;0.50;0.50;;;12.20;99.70;;;;;;958109;148;27227;-78
2024/01/04 07:48:02;;;;;;;0.90;0.50;;;12.30;99.80;;;;;;958722;146;27355;-82
2024/01/04 07:50:29;;;;;;;0.80;0.80;;;12.20;99.90;;;;;;956042;146;27344;-79
2024/01/04 07:52:55;;;;;;;0.50;0.50;;;12.20;99.90;;;;;;957209;148;27303;-78
2024/01/04 07:55:22;;;;;;;0.60;0.60;;;12.20;99.90;;;;;;958560;148;27277;-80
2024/01/04 07:57:49;;;;;;;0.53;0.50;;;12.20;99.50;;;;;;955735;148;27348;-79
2024/01/04 08:00:15;;;;;;;0.65;0.57;;;12.10;99.80;;;;;;955846;148;27427;-81
2024/01/04 08:02:42;;;;;;;1.27;0.90;;;12.20;99.70;;;;;;957221;148;27345;-78
2024/01/04 08:05:09;;;;;;;0.50;0.50;;;12.10;99.60;;;;;;958214;147;27274;-79
2024/01/04 08:07:36;;;;;;;0.50;0.50;;;12.10;99.50;;;;;;957151;148;27284;-80
2024/01/04 08:10:03;;;;;;;1.65;0.60;;;12.10;99.60;;;;;;956571;148;27465;-79
2024/01/04 08:12:28;;;;;;;0.87;0.60;;;12.10;99.60;;;;;;956795;148;28005;-79
2024/01/04 08:14:55;;;;;;;0.47;0.42;;;12.20;99.70;;;;;;953533;148;27385;-78
2024/01/04 08:17:22;;;;;;;0.73;0.50;;;12.10;99.70;;;;;;957831;148;27242;-78
2024/01/04 08:19:48;;;;;;;0.60;0.60;;;12.20;99.70;;;;;;955739;148;27340;-84
2024/01/04 08:22:15;;;;;;;1.67;0.50;;;12.20;99.70;;;;;;954530;148;27294;-86
2024/01/04 08:24:42;;;;;;;1.00;0.42;;;12.20;99.70;;;;;;958493;148;27365;-87
2024/01/04 08:27:08;;;;;;;0.78;0.50;;;12.20;99.70;;;;;;957103;146;27315;-85
2024/01/04 08:29:34;;;;;;;0.47;0.40;;;12.20;99.80;;;;;;956175;148;27351;-80
2024/01/04 08:32:01;;;;;;;0.65;0.65;;;12.20;99.90;;;;;;955070;148;27351;-87
2024/01/04 08:34:28;;;;;;;1.10;0.57;;;12.20;99.90;;;;;;956185;148;27349;-82
2024/01/04 08:36:54;;;;;;;0.50;0.50;;;12.20;99.90;;;;;;956424;147;27230;-86
2024/01/04 08:39:21;;;;;;;0.55;0.42;;;12.10;99.90;;;;;;957160;147;27875;-81
2024/01/04 08:41:47;;;;;;;0.50;0.40;;;12.10;99.90;;;;;;955660;147;27416;-85
2024/01/04 08:44:14;;;;;;;0.80;0.50;;;12.00;99.90;;;;;;957007;148;27311;-86
2024/01/04 08:46:41;;;;;;;1.33;0.50;;;12.00;99.90;;;;;;954915;148;27394;-84
2024/01/04 08:49:07;;;;;;;0.37;0.37;;;12.00;99.90;;;;;;955136;148;27389;-83
2024/01/04 08:51:34;;;;;;;0.97;0.50;;;11.90;99.90;;;;;;956247;148;27344;-87
2024/01/04 08:54:00;;;;;;;1.30;0.65;;;11.80;99.90;;;;;;953648;148;27334;-85
2024/01/04 08:56:27;;;;;;;0.50;0.50;;;11.80;99.90;;;;;;956227;148;27287;-85
2024/01/04 08:58:53;;;;;;;0.37;0.37;;;11.80;99.90;;;;;;954938;147;27334;-84
2024/01/04 09:01:20;;;;;;;0.50;0.50;;;11.80;99.90;;;;;;955624;148;27387;-81
2024/01/04 09:03:47;;;;;;;0.23;0.23;;;11.80;99.90;;;;;;956504;147;27339;-83
2024/01/04 09:06:13;;;;;;;0.42;0.42;;;11.80;99.90;;;;;;956895;148;27433;-86
2024/01/04 09:08:40;;;;;;;0.40;0.40;;;11.80;99.90;;;;;;957867;147;27323;-86
2024/01/04 09:11:06;;;;;;;0.33;0.30;;;11.80;99.90;;;;;;955921;148;27400;-82
2024/01/04 09:13:33;;;;;;;0.40;0.40;;;11.90;99.90;;;;;;958845;148;27409;-86
2024/01/04 09:16:00;;;;;;;0.40;0.40;;;11.90;99.90;;;;;;956166;148;27393;-86
2024/01/04 09:18:29;;;;;;;0.30;0.30;;;12.00;99.90;;;;;;957369;148;27287;-87
2024/01/04 09:20:56;;;;;;;0.95;0.50;;;12.10;99.90;;;;;;956103;148;27486;-83
2024/01/04 09:23:23;;;;;;;1.85;0.57;;;12.10;99.90;;;;;;955426;148;27352;-85
2024/01/04 09:25:49;;;;;;;0.45;0.45;;;12.20;99.90;;;;;;955070;148;27359;-87
2024/01/04 09:28:18;;;;;;;0.45;0.45;;;12.20;99.90;;;;;;956787;148;27509;-86
2024/01/04 09:30:43;;;;;;;3.63;0.57;;;12.30;99.90;;;;;;954141;148;27368;-87
2024/01/04 09:33:09;;;;;;;0.88;0.50;;;12.40;99.90;;;;;;960202;146;27490;-85
2024/01/04 09:35:36;;;;;;;0.47;0.42;;;12.40;99.90;;;;;;972714;145;27392;-82
2024/01/04 09:38:02;;;;;;;0.82;0.50;;;12.40;99.90;;;;;;974271;147;27317;-87
2024/01/04 09:40:29;;;;;;;1.40;0.60;;;12.50;99.90;;;;;;973752;146;27254;-85
2024/01/04 09:42:56;;;;;;;0.53;0.53;;;12.50;99.90;;;;;;974865;146;27506;-86
2024/01/04 09:45:22;;;;;;;0.50;0.50;;;12.60;99.90;;;;;;974749;145;27270;-81
2024/01/04 09:47:53;;;;;;;0.85;0.50;;;12.60;99.90;;;;;;974537;147;27389;-85
2024/01/04 09:50:15;;;;;;;1.17;0.57;;;12.60;99.90;;;;;;974412;146;27378;-85
2024/01/04 09:52:45;;;;;;;0.95;0.45;;;12.70;99.90;;;;;;974418;145;27294;-86
2024/01/04 09:55:12;;;;;;;0.30;0.30;;;12.70;99.90;;;;;;974929;146;27897;-82
2024/01/04 09:57:38;;;;;;;0.40;0.40;;;12.70;99.90;;;;;;974384;147;27313;-86
2024/01/04 10:00:05;;;;;;;1.02;0.72;;;12.80;99.90;;;;;;973904;147;27246;-85
2024/01/04 10:02:31;;;;;;;0.50;0.50;;;12.80;99.90;;;;;;974453;146;27241;-85
2024/01/04 10:04:59;;;;;;;0.40;0.40;;;12.90;99.90;;;;;;974171;145;27258;-85
2024/01/04 10:07:25;;;;;;;0.40;0.40;;;12.90;99.90;;;;;;974825;146;27432;-87
2024/01/04 10:09:51;;;;;;;0.45;0.45;;;13.00;99.90;;;;;;974085;145;27357;-87
2024/01/04 10:12:17;;;;;;;0.30;0.30;;;13.00;99.90;;;;;;973573;146;27775;-86
2024/01/04 10:14:44;;;;;;;0.50;0.50;;;13.00;99.90;;;;;;973703;146;27278;-86
2024/01/04 10:17:11;;;;;;;1.32;0.80;;;13.10;99.90;;;;;;974372;146;27282;-85
2024/01/04 10:19:38;;;;;;;0.75;0.75;;;13.10;99.90;;;;;;974357;147;27344;-84
2024/01/04 10:22:04;;;;;;;0.57;0.57;;;13.00;99.90;;;;;;974645;147;27301;-86
2024/01/04 10:24:30;;;;;;;0.75;0.62;;;13.00;99.90;;;;;;975269;145;27265;-86
2024/01/04 10:27:00;;;;;;;0.57;0.57;;;13.00;99.90;;;;;;974554;145;27343;-86
2024/01/04 10:29:26;;;;;;;0.65;0.65;;;13.00;99.90;;;;;;974745;147;27409;-78
2024/01/04 10:32:02;;;;;;;0.53;0.50;;;13.00;99.90;;;;;;973752;146;27229;-77
2024/01/04 10:34:29;;;;;;;1.50;0.72;;;13.00;99.90;;;;;;971115;146;27327;-77
2024/01/04 10:36:55;;;;;;;1.20;0.70;;;13.00;99.90;;;;;;969234;147;27304;-79
2024/01/04 10:39:22;;;;;;;2.58;0.60;;;13.00;99.90;;;;;;968335;147;27322;-86
2024/01/04 10:41:59;;;;;;;0.85;0.68;;;13.00;99.90;;;;;;969638;148;27290;-86
2024/01/04 10:44:24;;;;;;;0.93;0.85;;;13.10;99.90;;;;;;969097;147;27302;-87
2024/01/04 10:46:55;;;;;;;0.50;0.50;;;13.10;99.90;;;;;;969596;147;27302;-83
2024/01/04 10:49:20;;;;;;;1.55;0.82;;;13.20;99.90;;;;;;969245;147;27387;-84
2024/01/04 10:51:47;;;;;;;1.02;0.60;;;13.20;99.90;;;;;;969674;148;27411;-88
2024/01/04 10:54:14;;;;;;;1.85;0.80;;;13.30;99.90;;;;;;969615;147;27654;-85
2024/01/04 10:56:40;;;;;;;0.78;0.72;;;13.40;99.90;;;;;;968709;147;27298;-85
2024/01/04 10:59:07;;;;;;;0.98;0.60;;;13.50;99.90;;;;;;968859;147;27278;-86
2024/01/04 11:01:33;;;;;;;0.68;0.68;;;13.60;99.90;;;;;;969448;147;27268;-81
2024/01/04 11:04:00;;;;;;;0.88;0.68;;;13.60;99.50;;;;;;932100;153;27362;-86
2024/01/04 11:06:27;;;;;;;1.10;0.55;;;13.70;99.00;;;;;;954700;149;27382;-86
2024/01/04 11:08:53;;;;;;;0.80;0.80;;;13.80;98.70;;;;;;935517;150;27334;-86
2024/01/04 11:11:20;;;;;;;2.52;0.60;;;13.80;98.60;;;;;;939872;152;27318;-83
2024/01/04 11:13:46;;;;;;;0.80;0.72;;;13.90;98.70;;;;;;968465;147;27419;-84
2024/01/04 11:16:22;;;;;;;0.82;0.47;;;14.00;98.90;;;;;;969507;148;27302;-85
2024/01/04 11:19:03;;;;;;;2.15;0.78;;;14.20;98.50;;;;;;968504;148;27374;-86
2024/01/04 11:21:38;;;;;;;1.20;0.90;;;14.30;97.90;;;;;;969158;147;27303;-82
2024/01/04 11:24:08;;;;;;;1.32;0.88;;;14.40;97.30;;;;;;969459;147;27313;-86
2024/01/04 11:26:56;;;;;;;1.12;0.80;;;14.40;96.60;;;;;;970255;148;27302;-85
2024/01/04 11:29:23;;;;;;;2.35;0.82;;;14.50;95.80;;;;;;969522;147;27363;-86
2024/01/04 11:31:49;;;;;;;0.75;0.62;;;14.50;95.20;;;;;;968794;147;27279;-85
2024/01/04 11:34:16;;;;;;;2.12;1.05;;;14.50;94.70;;;;;;969008;147;27446;-87
2024/01/04 11:36:42;;;;;;;4.28;0.98;;;14.50;94.30;;;;;;967883;147;27450;-85
2024/01/04 11:39:10;;;;;;;2.85;1.50;;;14.40;93.80;;;;;;968989;147;27256;-78
2024/01/04 11:41:35;;;;;;;1.15;1.00;;;14.40;93.40;;;;;;970143;147;27304;-79
2024/01/04 11:44:02;;;;;;;2.33;1.98;;;14.30;93.00;;;;;;969314;146;27299;-77
2024/01/04 11:46:29;;;;;;;1.70;0.98;;;14.30;92.80;;;;;;969493;148;27603;-78
2024/01/04 11:49:01;;;;;;;1.62;0.75;;;14.20;92.70;;;;;;968824;147;27255;-77
2024/01/04 11:51:40;;;;;;;1.52;0.80;;;14.10;92.70;;;;;;968708;147;27411;-79
2024/01/04 11:54:07;;;;;;;0.60;0.60;;;14.00;93.00;;;;;;969173;147;27314;-82
2024/01/04 11:56:33;;;;;;;0.85;0.70;;;14.00;93.30;;;;;;968328;146;27327;-78
2024/01/04 11:59:12;;;;;;;1.30;0.93;;;14.00;93.30;;;;;;967337;146;27331;-77
2024/01/04 12:01:41;;;;;;;1.57;1.15;;;13.90;93.20;;;;;;967343;146;27305;-78
2024/01/04 12:04:11;;;;;;;1.12;1.00;;;13.90;93.20;;;;;;968274;147;27270;-79
2024/01/04 12:06:40;;;;;;;1.70;0.90;;;13.80;93.10;;;;;;967468;147;27320;-77
2024/01/04 12:09:07;;;;;;;1.60;1.00;;;13.80;93.20;;;;;;968100;145;27415;-78
2024/01/04 12:11:33;;;;;;;3.00;1.30;;;13.80;93.30;;;;;;968512;147;27282;-77
2024/01/04 12:14:01;;;;;;;2.83;1.32;;;13.80;93.50;;;;;;968076;147;27240;-80
2024/01/04 12:16:26;;;;;;;2.22;1.25;;;13.80;93.70;;;;;;968549;147;27327;-80
2024/01/04 12:18:53;;;;;;;2.58;1.20;;;13.80;94.00;;;;;;968632;147;28567;-78
2024/01/04 12:21:19;;;;;;;1.05;0.98;;;13.80;94.10;;;;;;968676;147;27409;-78
2024/01/04 12:23:47;;;;;;;1.17;0.82;;;13.90;94.20;;;;;;967710;147;27252;-79
2024/01/04 12:26:13;;;;;;;1.42;1.22;;;13.90;94.10;;;;;;968656;146;27336;-77
2024/01/04 12:28:40;;;;;;;5.25;1.57;;;14.00;93.80;;;;;;968275;147;27403;-78
2024/01/04 12:31:07;;;;;;;2.80;1.60;;;14.00;93.40;;;;;;968716;147;27250;-78
2024/01/04 12:33:32;;;;;;;1.65;1.20;;;14.10;93.20;;;;;;967360;147;27227;-78
2024/01/04 12:35:59;;;;;;;2.47;1.00;;;14.10;93.20;;;;;;968360;146;27392;-80
2024/01/04 12:38:26;;;;;;;2.42;1.07;;;14.20;93.00;;;;;;968586;146;27335;-77
2024/01/04 12:40:52;;;;;;;6.80;1.65;;;14.20;92.80;;;;;;968520;147;27304;-78
2024/01/04 12:43:20;;;;;;;5.42;1.50;;;14.20;92.30;;;;;;968528;146;27243;-78
2024/01/04 12:45:45;;;;;;;3.62;1.50;;;14.30;92.00;;;;;;968307;147;27375;-78